createdAt,value
2022-10-17T00:00:48.468Z,102412.16
2022-10-17T00:03:19.052Z,102418.72
2022-10-17T00:05:50.432Z,102414.19
2022-10-17T00:08:21.753Z,102413.75
2022-10-17T00:11:01.392Z,102416.19
2022-10-17T00:16:03.977Z,102426.31
2022-10-17T00:18:34.507Z,102429.09
2022-10-17T00:21:04.656Z,102424.13
2022-10-17T00:23:36.063Z,102431.84
2022-10-17T00:26:08.224Z,102434.91
2022-10-17T00:28:39.050Z,102434.59
2022-10-17T00:31:09.275Z,102421.06
2022-10-17T00:33:41.039Z,102416.41
2022-10-17T00:36:24.381Z,102422.09
2022-10-17T00:38:57.707Z,102426.00
2022-10-17T00:41:34.943Z,102428.53
2022-10-17T00:44:32.812Z,102434.34
2022-10-17T00:47:10.307Z,102435.81
2022-10-17T00:49:42.817Z,102441.41
2022-10-17T00:52:23.339Z,102419.31
2022-10-17T00:55:20.432Z,102420.13
2022-10-17T00:57:51.026Z,102423.91
2022-10-17T01:00:22.497Z,102413.84
2022-10-17T01:02:53.333Z,102421.53
2022-10-17T01:05:25.128Z,102423.03
2022-10-17T01:07:55.746Z,102418.97
2022-10-17T01:10:33.481Z,102417.56
2022-10-17T01:13:19.700Z,102412.50
2022-10-17T01:15:58.305Z,102409.81
2022-10-17T01:18:49.748Z,102404.38
2022-10-17T01:21:50.937Z,102412.09
2022-10-17T01:24:47.262Z,102390.72
2022-10-17T01:27:46.656Z,102396.41
2022-10-17T01:31:14.863Z,102402.09
2022-10-17T01:34:06.993Z,102394.53
2022-10-17T01:37:00.004Z,102394.19
2022-10-17T01:39:56.542Z,102400.22
2022-10-17T01:42:59.900Z,102386.50
2022-10-17T01:45:47.952Z,102379.66
2022-10-17T01:48:28.490Z,102369.94
2022-10-17T01:51:04.022Z,102376.19
2022-10-17T01:53:43.565Z,102386.31
2022-10-17T01:56:18.728Z,102379.09
2022-10-17T01:58:58.954Z,102380.28
2022-10-17T02:01:36.116Z,102366.09
2022-10-17T02:04:08.536Z,102363.94
2022-10-17T02:06:39.334Z,102364.53
2022-10-17T02:09:29.159Z,102356.94
2022-10-17T02:12:31.283Z,102362.00
2022-10-17T02:15:07.678Z,102350.56
2022-10-17T02:18:05.891Z,102353.34
2022-10-17T02:20:47.828Z,102349.22
2022-10-17T02:23:32.630Z,102336.34
2022-10-17T02:26:21.413Z,102338.38
2022-10-17T02:28:57.663Z,102332.81
2022-10-17T02:31:45.759Z,102333.06
2022-10-17T02:34:24.125Z,102320.38
2022-10-17T02:37:00.288Z,102327.88
2022-10-17T02:39:33.627Z,102321.81
2022-10-17T02:42:08.156Z,102322.09
2022-10-17T02:44:42.789Z,102320.88
2022-10-17T02:47:23.727Z,102316.16
2022-10-17T02:49:57.151Z,102310.84
2022-10-17T02:52:39.863Z,102308.53
2022-10-17T02:55:38.171Z,102305.53
2022-10-17T02:58:32.335Z,102308.78
2022-10-17T03:01:06.671Z,102294.06
2022-10-17T03:03:36.792Z,102299.00
2022-10-17T03:06:07.088Z,102281.34
2022-10-17T03:11:12.676Z,102276.75
2022-10-17T03:13:43.294Z,102280.44
2022-10-17T03:16:13.590Z,102270.31
2022-10-17T03:18:46.614Z,102265.56
2022-10-17T03:21:20.059Z,102265.03
2022-10-17T03:23:50.675Z,102243.34
2022-10-17T03:26:23.202Z,102241.97
2022-10-17T03:28:54.645Z,102243.97
2022-10-17T03:31:26.185Z,102232.13
2022-10-17T03:33:58.579Z,102232.44
2022-10-17T03:36:28.963Z,102232.28
2022-10-17T03:38:59.943Z,102236.09
2022-10-17T03:41:31.005Z,102233.75
2022-10-17T03:44:01.559Z,102220.22
2022-10-17T03:46:31.787Z,102228.75
2022-10-17T03:49:03.607Z,102215.06
2022-10-17T03:51:36.635Z,102209.34
2022-10-17T03:54:12.012Z,102198.44
2022-10-17T03:56:42.946Z,102183.78
2022-10-17T03:59:17.650Z,102187.13
2022-10-17T04:01:56.561Z,102197.09
2022-10-17T04:04:27.003Z,102191.53
2022-10-17T04:06:57.554Z,102178.38
2022-10-17T04:09:28.573Z,102168.88
2022-10-17T04:12:13.098Z,102170.41
2022-10-17T04:14:43.633Z,102160.34
2022-10-17T04:17:13.746Z,102171.53
2022-10-17T04:19:43.902Z,102144.13
2022-10-17T04:22:17.353Z,102143.00
2022-10-17T04:24:48.007Z,102139.94
2022-10-17T04:27:39.948Z,102125.38
2022-10-17T04:30:11.627Z,102138.13
2022-10-17T04:32:42.427Z,102108.56
2022-10-17T04:35:24.577Z,102118.69
2022-10-17T04:38:02.672Z,102117.69
2022-10-17T04:40:33.056Z,102110.25
2022-10-17T04:43:03.843Z,102106.75
2022-10-17T04:45:38.703Z,102086.59
2022-10-17T04:48:09.531Z,102089.94
2022-10-17T04:50:39.988Z,102090.06
2022-10-17T04:53:32.698Z,102086.94
2022-10-17T04:56:04.210Z,102079.38
2022-10-17T04:58:34.571Z,102071.94
2022-10-17T05:01:10.531Z,102058.19
2022-10-17T05:03:43.247Z,102060.56
2022-10-17T05:06:21.000Z,102062.09
2022-10-17T05:09:08.565Z,102056.31
2022-10-17T05:11:39.953Z,102029.25
2022-10-17T05:14:10.722Z,102026.44
2022-10-17T05:16:41.264Z,102020.53
2022-10-17T05:19:13.180Z,102023.75
2022-10-17T05:21:49.316Z,102009.97
2022-10-17T05:24:20.224Z,102006.19
2022-10-17T05:26:53.492Z,102009.53
2022-10-17T05:29:25.451Z,101993.41
2022-10-17T05:32:04.781Z,102003.28
2022-10-17T05:34:37.188Z,101995.81
2022-10-17T05:37:08.210Z,101999.69
2022-10-17T05:39:39.017Z,101984.28
2022-10-17T05:42:09.992Z,101989.28
2022-10-17T05:44:42.696Z,101985.66
2022-10-17T05:47:13.105Z,101981.97
2022-10-17T05:49:49.785Z,101978.88
2022-10-17T05:52:23.886Z,101969.94
2022-10-17T05:55:08.285Z,101968.75
2022-10-17T05:57:38.940Z,101955.28
2022-10-17T06:00:14.722Z,101948.13
2022-10-17T06:02:47.405Z,101946.69
2022-10-17T06:05:20.828Z,101953.53
2022-10-17T06:07:56.977Z,101947.91
2022-10-17T06:10:30.103Z,101942.72
2022-10-17T06:13:02.223Z,101934.63
2022-10-17T06:15:32.628Z,101928.00
2022-10-17T06:18:08.200Z,101927.50
2022-10-17T06:20:40.556Z,101933.06
2022-10-17T06:23:14.468Z,101939.75
2022-10-17T06:25:56.137Z,101928.47
2022-10-17T06:28:27.388Z,101929.28
2022-10-17T06:30:57.993Z,101922.81
2022-10-17T06:33:29.854Z,101915.97
2022-10-17T06:36:01.058Z,101912.50
2022-10-17T06:38:34.146Z,101916.69
2022-10-17T06:41:14.696Z,101913.03
2022-10-17T06:43:49.683Z,101898.53
2022-10-17T06:46:31.227Z,101910.56
2022-10-17T06:49:06.143Z,101898.22
2022-10-17T06:51:59.116Z,101894.03
2022-10-17T06:54:49.880Z,101905.91
2022-10-17T06:57:43.938Z,101905.25
2022-10-17T07:00:42.592Z,101894.03
2022-10-17T07:03:14.679Z,101893.88
2022-10-17T07:05:44.782Z,101894.88
2022-10-17T07:08:15.949Z,101890.72
2022-10-17T07:10:46.139Z,101891.06
2022-10-17T07:13:16.795Z,101894.56
2022-10-17T07:15:48.580Z,101894.38
2022-10-17T07:18:19.850Z,101896.38
2022-10-17T07:20:57.402Z,101894.38
2022-10-17T07:23:28.403Z,101889.41
2022-10-17T07:26:10.485Z,101880.28
2022-10-17T07:28:44.048Z,101880.13
2022-10-17T07:31:27.592Z,101873.41
2022-10-17T07:33:57.788Z,101874.06
2022-10-17T07:36:27.953Z,101870.59
2022-10-17T07:38:59.400Z,101877.59
2022-10-17T07:41:30.460Z,101868.59
2022-10-17T07:44:00.551Z,101865.56
2022-10-17T07:46:38.028Z,101866.25
2022-10-17T07:49:08.715Z,101857.41
2022-10-17T07:51:39.044Z,101853.25
2022-10-17T07:54:09.171Z,101858.75
2022-10-17T07:56:39.631Z,101850.06
2022-10-17T07:59:09.809Z,101848.53
2022-10-17T08:01:39.903Z,101853.06
2022-10-17T08:04:09.970Z,101852.88
2022-10-17T08:06:40.191Z,101851.72
2022-10-17T08:09:10.342Z,101849.72
2022-10-17T08:11:40.797Z,101846.69
2022-10-17T08:14:11.327Z,101846.03
2022-10-17T08:16:42.359Z,101843.66
2022-10-17T08:19:12.895Z,101844.31
2022-10-17T08:21:45.039Z,101845.97
2022-10-17T08:24:15.290Z,101837.94
2022-10-17T08:26:48.251Z,101834.59
2022-10-17T08:29:19.810Z,101831.72
2022-10-17T08:31:52.417Z,101832.75
2022-10-17T08:34:26.530Z,101833.19
2022-10-17T08:36:56.900Z,101827.66
2022-10-17T08:39:27.318Z,101833.00
2022-10-17T08:42:12.698Z,101819.16
2022-10-17T08:45:04.437Z,101818.81
2022-10-17T08:47:41.059Z,101818.59
2022-10-17T08:50:30.918Z,101818.09
2022-10-17T08:53:10.965Z,101809.59
2022-10-17T08:55:47.283Z,101818.16
2022-10-17T08:58:31.999Z,101811.78
2022-10-17T09:01:45.808Z,101813.09
2022-10-17T09:04:15.959Z,101813.41
2022-10-17T09:06:57.391Z,101807.69
2022-10-17T09:09:36.126Z,101809.84
2022-10-17T09:12:35.871Z,101806.81
2022-10-17T09:15:31.487Z,101810.09
2022-10-17T09:18:40.915Z,101807.22
2022-10-17T09:21:30.638Z,101813.28
2022-10-17T09:24:15.767Z,101802.59
2022-10-17T09:26:48.357Z,101797.88
2022-10-17T09:29:25.378Z,101797.63
2022-10-17T09:32:15.675Z,101804.41
2022-10-17T09:34:46.073Z,101807.84
2022-10-17T09:37:19.151Z,101797.78
2022-10-17T09:39:49.536Z,101802.91
2022-10-17T09:42:23.157Z,101799.00
2022-10-17T09:45:16.307Z,101802.28
2022-10-17T09:47:52.816Z,101809.16
2022-10-17T09:50:30.415Z,101799.25
2022-10-17T09:53:45.655Z,101800.97
2022-10-17T09:56:21.527Z,101798.38
2022-10-17T09:58:57.027Z,101808.22
2022-10-17T10:01:30.724Z,101815.25
2022-10-17T10:04:13.222Z,101818.09
2022-10-17T10:07:07.763Z,101815.31
2022-10-17T10:09:40.517Z,101819.81
2022-10-17T10:12:25.434Z,101816.88
2022-10-17T10:14:56.527Z,101827.53
2022-10-17T10:17:45.527Z,101823.78
2022-10-17T10:20:32.267Z,101827.13
2022-10-17T10:23:23.517Z,101826.84
2022-10-17T10:26:01.207Z,101828.00
2022-10-17T10:28:35.185Z,101831.59
2022-10-17T10:31:09.650Z,101837.22
2022-10-17T10:33:50.205Z,101840.00
2022-10-17T10:36:24.215Z,101834.94
2022-10-17T10:39:02.404Z,101843.19
2022-10-17T10:41:50.032Z,101842.91
2022-10-17T10:44:25.912Z,101844.59
2022-10-17T10:47:17.195Z,101846.09
2022-10-17T10:49:47.682Z,101851.28
2022-10-17T10:52:59.463Z,101846.81
2022-10-17T10:55:34.464Z,101847.19
2022-10-17T10:58:28.352Z,101853.91
2022-10-17T11:01:02.861Z,101852.75
2022-10-17T11:03:44.879Z,101846.03
2022-10-17T11:06:24.446Z,101850.22
2022-10-17T11:09:17.053Z,101851.03
2022-10-17T11:12:09.962Z,101850.03
2022-10-17T11:15:09.359Z,101855.00
2022-10-17T11:18:24.536Z,101855.94
2022-10-17T11:21:20.888Z,101857.56
2022-10-17T11:24:03.619Z,101862.69
2022-10-17T11:26:47.117Z,101871.16
2022-10-17T11:29:17.545Z,101857.59
2022-10-17T11:31:54.516Z,101857.25
2022-10-17T11:34:38.253Z,101865.97
2022-10-17T11:37:18.551Z,101868.16
2022-10-17T11:40:08.032Z,101862.53
2022-10-17T11:42:53.651Z,101878.13
2022-10-17T11:45:27.703Z,101870.94
2022-10-17T11:48:28.694Z,101873.41
2022-10-17T11:54:32.971Z,101874.19
2022-10-17T11:57:41.408Z,101877.47
2022-10-17T12:00:42.166Z,101876.13
2022-10-17T12:03:22.239Z,101885.41
2022-10-17T12:06:11.191Z,101884.13
2022-10-17T12:09:18.541Z,101894.22
2022-10-17T12:12:26.222Z,101886.53
2022-10-17T12:15:16.666Z,101884.38
2022-10-17T12:17:57.594Z,101886.66
2022-10-17T12:20:31.959Z,101886.31
2022-10-17T12:23:14.791Z,101887.75
2022-10-17T12:26:01.080Z,101890.75
2022-10-17T12:28:40.571Z,101896.41
2022-10-17T12:31:18.680Z,101903.97
2022-10-17T12:33:55.045Z,101905.31
2022-10-17T12:36:25.457Z,101901.34
2022-10-17T12:39:04.753Z,101905.78
2022-10-17T12:41:40.985Z,101912.34
2022-10-17T12:44:23.663Z,101902.28
2022-10-17T12:47:12.243Z,101906.81
2022-10-17T12:49:45.127Z,101905.38
2022-10-17T12:52:34.148Z,101908.34
2022-10-17T12:55:13.434Z,101906.91
2022-10-17T12:57:44.871Z,101912.53
2022-10-17T13:00:59.561Z,101913.00
2022-10-17T13:03:44.639Z,101907.34
2022-10-17T13:06:23.969Z,101908.56
2022-10-17T13:09:09.840Z,101911.63
2022-10-17T13:11:42.221Z,101913.91
2022-10-17T13:14:16.979Z,101907.16
2022-10-17T13:16:57.330Z,101915.56
2022-10-17T13:19:48.003Z,101916.59
2022-10-17T13:22:30.733Z,101921.28
2022-10-17T13:25:20.609Z,101925.22
2022-10-17T13:27:51.624Z,101925.53
2022-10-17T13:30:32.004Z,101935.47
2022-10-17T13:33:03.961Z,101935.72
2022-10-17T13:35:58.807Z,101935.94
2022-10-17T13:38:30.543Z,101939.00
2022-10-17T13:41:16.587Z,101939.25
2022-10-17T13:43:52.751Z,101934.91
2022-10-17T13:46:37.819Z,101931.56
2022-10-17T13:49:22.183Z,101943.50
2022-10-17T13:51:56.400Z,101941.28
2022-10-17T13:54:47.851Z,101939.84
2022-10-17T13:57:28.748Z,101952.28
2022-10-17T14:00:17.595Z,101944.81
2022-10-17T14:02:48.159Z,101939.88
2022-10-17T14:05:21.818Z,101935.75
2022-10-17T14:08:11.230Z,101935.25
2022-10-17T14:10:45.651Z,101945.78
2022-10-17T14:13:37.309Z,101944.22
2022-10-17T14:16:10.027Z,101942.63
2022-10-17T14:18:42.082Z,101942.88
2022-10-17T14:24:19.315Z,101965.31
2022-10-17T14:27:00.196Z,101955.94
2022-10-17T14:29:51.979Z,101963.72
2022-10-17T14:32:24.338Z,101964.16
2022-10-17T14:35:17.892Z,101957.00
2022-10-17T14:37:59.312Z,101965.94
2022-10-17T14:40:31.669Z,101964.56
2022-10-17T14:43:07.130Z,101959.31
2022-10-17T14:45:41.771Z,101957.59
2022-10-17T14:48:16.699Z,101958.69
2022-10-17T14:51:10.993Z,101959.63
2022-10-17T14:53:43.966Z,101960.97
2022-10-17T14:56:29.352Z,101957.91
2022-10-17T14:58:59.844Z,101968.56
2022-10-17T15:01:30.255Z,101960.97
2022-10-17T15:04:00.722Z,101958.44
2022-10-17T15:06:34.600Z,101959.25
2022-10-17T15:09:06.188Z,101956.84
2022-10-17T15:11:36.609Z,101960.41
2022-10-17T15:14:07.014Z,101968.31
2022-10-17T15:16:38.773Z,101963.16
2022-10-17T15:19:09.026Z,101964.13
2022-10-17T15:21:43.217Z,101954.44
2022-10-17T15:24:17.502Z,101964.97
2022-10-17T15:26:47.995Z,101960.63
2022-10-17T15:29:18.584Z,101962.41
2022-10-17T15:31:48.908Z,101963.50
2022-10-17T15:34:19.158Z,101957.69
2022-10-17T15:36:55.431Z,101960.31
2022-10-17T15:39:25.795Z,101962.22
2022-10-17T15:41:56.087Z,101957.06
2022-10-17T15:44:26.311Z,101967.69
2022-10-17T15:46:58.810Z,101972.31
2022-10-17T15:49:29.221Z,101966.31
2022-10-17T15:51:59.473Z,101964.72
2022-10-17T15:54:29.752Z,101967.34
2022-10-17T15:57:00.028Z,101971.13
2022-10-17T15:59:35.877Z,101965.13
2022-10-17T16:02:06.204Z,101973.31
2022-10-17T16:04:37.050Z,101966.50
2022-10-17T16:07:08.723Z,101965.72
2022-10-17T16:09:39.436Z,101971.94
2022-10-17T16:12:15.637Z,101980.75
2022-10-17T16:14:46.945Z,101976.66
2022-10-17T16:17:18.746Z,101990.00
2022-10-17T16:19:49.682Z,101987.78
2022-10-17T16:22:43.530Z,101984.91
2022-10-17T16:25:29.115Z,101980.34
2022-10-17T16:28:01.377Z,101981.75
2022-10-17T16:30:33.993Z,101992.47
2022-10-17T16:33:04.537Z,101985.00
2022-10-17T16:35:37.631Z,101982.81
2022-10-17T16:38:09.668Z,101979.47
2022-10-17T16:40:41.736Z,101973.66
2022-10-17T16:43:15.660Z,101972.16
2022-10-17T16:45:46.027Z,101972.34
2022-10-17T16:48:16.462Z,101968.97
2022-10-17T16:50:46.713Z,101968.97
2022-10-17T16:53:16.881Z,101971.59
2022-10-17T16:55:47.060Z,101975.28
2022-10-17T16:58:17.797Z,101971.03
2022-10-17T17:00:47.895Z,101971.69
2022-10-17T17:03:18.483Z,101972.75
2022-10-17T17:05:53.530Z,101978.09
2022-10-17T17:08:24.204Z,101975.38
2022-10-17T17:10:56.334Z,101972.75
2022-10-17T17:13:29.667Z,101974.50
2022-10-17T17:16:13.350Z,101971.13
2022-10-17T17:18:44.850Z,101973.13
2022-10-17T17:21:15.952Z,101968.69
2022-10-17T17:23:46.649Z,101967.13
2022-10-17T17:26:24.148Z,101963.66
2022-10-17T17:28:55.452Z,101969.75
2022-10-17T17:31:28.537Z,101965.53
2022-10-17T17:34:00.227Z,101976.97
2022-10-17T17:36:33.463Z,101977.06
2022-10-17T17:39:06.673Z,101973.69
2022-10-17T17:41:37.762Z,101972.00
2022-10-17T17:44:10.171Z,101972.00
2022-10-17T17:46:44.901Z,101965.81
2022-10-17T17:49:16.303Z,101968.25
2022-10-17T17:51:47.980Z,101956.63
2022-10-17T17:54:18.849Z,101958.09
2022-10-17T17:56:48.956Z,101954.44
2022-10-17T17:59:19.496Z,101954.28
2022-10-17T18:01:49.846Z,101953.97
2022-10-17T18:04:20.053Z,101948.44
2022-10-17T18:06:50.748Z,101952.44
2022-10-17T18:09:21.678Z,101955.63
2022-10-17T18:11:52.248Z,101959.00
2022-10-17T18:14:25.133Z,101953.38
2022-10-17T18:16:55.706Z,101951.63
2022-10-17T18:21:57.668Z,101946.97
2022-10-17T18:24:27.814Z,101947.44
2022-10-17T18:27:01.048Z,101951.19
2022-10-17T18:29:31.193Z,101957.56
2022-10-17T18:32:02.598Z,101957.84
2022-10-17T18:34:32.699Z,101954.63
2022-10-17T18:37:04.075Z,101952.31
2022-10-17T18:39:33.680Z,101953.25
2022-10-17T18:42:03.797Z,101944.78
2022-10-17T18:44:33.922Z,101952.00
2022-10-17T18:47:04.562Z,101948.72
2022-10-17T18:49:34.180Z,101947.41
2022-10-17T18:52:04.490Z,101953.13
2022-10-17T18:54:36.019Z,101941.41
2022-10-17T18:57:06.298Z,101946.06
2022-10-17T18:59:36.589Z,101941.00
2022-10-17T19:02:07.837Z,101949.03
2022-10-17T19:04:38.517Z,101945.66
2022-10-17T19:07:09.012Z,101943.31
2022-10-17T19:09:39.793Z,101943.56
2022-10-17T19:12:10.002Z,101937.66
2022-10-17T19:14:40.876Z,101932.66
2022-10-17T19:17:11.047Z,101934.53
2022-10-17T19:19:45.492Z,101923.28
2022-10-17T19:22:15.830Z,101929.38
2022-10-17T19:24:45.973Z,101920.75
2022-10-17T19:27:16.287Z,101929.47
2022-10-17T19:29:46.500Z,101925.16
2022-10-17T19:32:19.227Z,101922.53
2022-10-17T19:34:53.438Z,101928.78
2022-10-17T19:37:23.780Z,101927.47
2022-10-17T19:39:53.897Z,101921.06
2022-10-17T19:42:24.000Z,101924.78
2022-10-17T19:44:54.500Z,101930.28
2022-10-17T19:47:24.633Z,101926.06
2022-10-17T19:49:54.837Z,101927.84
2022-10-17T19:52:24.928Z,101921.88
2022-10-17T19:54:55.466Z,101922.03
2022-10-17T19:57:27.238Z,101919.75
2022-10-17T19:59:58.208Z,101927.00
2022-10-17T20:02:28.830Z,101927.00
2022-10-17T20:05:17.470Z,101925.41
2022-10-17T20:07:48.623Z,101924.81
2022-10-17T20:10:21.358Z,101926.69
2022-10-17T20:12:51.698Z,101923.25
2022-10-17T20:15:21.786Z,101925.06
2022-10-17T20:17:51.908Z,101927.69
2022-10-17T20:20:22.397Z,101932.19
2022-10-17T20:22:52.522Z,101926.94
2022-10-17T20:25:22.882Z,101928.63
2022-10-17T20:27:53.444Z,101923.41
2022-10-17T20:30:23.537Z,101918.91
2022-10-17T20:32:56.332Z,101919.66
2022-10-17T20:35:27.151Z,101921.38
2022-10-17T20:37:57.522Z,101923.25
2022-10-17T20:40:35.131Z,101919.84
2022-10-17T20:43:08.247Z,101910.31
2022-10-17T20:45:50.868Z,101917.22
2022-10-17T20:48:22.336Z,101927.09
2022-10-17T20:50:52.820Z,101920.34
2022-10-17T20:53:36.651Z,101925.75
2022-10-17T20:56:13.662Z,101923.31
2022-10-17T20:58:44.056Z,101929.56
2022-10-17T21:01:14.521Z,101924.59
2022-10-17T21:03:46.487Z,101933.50
2022-10-17T21:06:18.929Z,101929.22
2022-10-17T21:08:50.221Z,101922.38
2022-10-17T21:11:26.270Z,101926.78
2022-10-17T21:14:08.784Z,101920.03
2022-10-17T21:16:40.528Z,101924.66
2022-10-17T21:19:13.313Z,101920.41
2022-10-17T21:21:46.007Z,101924.06
2022-10-17T21:24:20.814Z,101922.34
2022-10-17T21:26:56.722Z,101926.66
2022-10-17T21:29:27.575Z,101926.00
2022-10-17T21:31:57.696Z,101920.75
2022-10-17T21:34:27.827Z,101920.84
2022-10-17T21:36:58.411Z,101923.44
2022-10-17T21:39:29.092Z,101919.41
2022-10-17T21:41:59.564Z,101924.94
2022-10-17T21:44:30.647Z,101922.56
2022-10-17T21:47:00.901Z,101926.25
2022-10-17T21:49:31.855Z,101937.81
2022-10-17T21:52:05.286Z,101923.13
2022-10-17T21:54:36.023Z,101932.81
2022-10-17T21:57:06.695Z,101923.38
2022-10-17T21:59:37.055Z,101929.44
2022-10-17T22:02:07.608Z,101934.91
2022-10-17T22:04:37.764Z,101922.84
2022-10-17T22:07:07.889Z,101924.84
2022-10-17T22:09:38.000Z,101923.22
2022-10-17T22:12:08.300Z,101923.41
2022-10-17T22:14:38.523Z,101919.22
2022-10-17T22:17:08.608Z,101919.41
2022-10-17T22:19:38.787Z,101929.94
2022-10-17T22:22:08.999Z,101914.19
2022-10-17T22:24:39.472Z,101932.47
2022-10-17T22:27:11.693Z,101931.53
2022-10-17T22:29:42.192Z,101928.94
2022-10-17T22:32:12.737Z,101931.63
2022-10-17T22:34:43.000Z,101938.63
2022-10-17T22:37:13.630Z,101933.47
2022-10-17T22:39:43.794Z,101932.56
2022-10-17T22:42:13.977Z,101918.53
2022-10-17T22:44:44.896Z,101922.84
2022-10-17T22:47:14.990Z,101918.47
2022-10-17T22:49:45.505Z,101925.31
2022-10-17T22:52:15.700Z,101928.63
2022-10-17T22:54:45.696Z,101925.06
2022-10-17T22:57:15.876Z,101933.09
2022-10-17T22:59:46.195Z,101929.88
2022-10-17T23:02:16.849Z,101935.25
2022-10-17T23:04:47.067Z,101938.94
2022-10-17T23:07:17.740Z,101945.00
2022-10-17T23:09:47.920Z,101942.47
2022-10-17T23:12:18.636Z,101934.69
2022-10-17T23:14:48.812Z,101943.38
2022-10-17T23:17:19.646Z,101943.31
2022-10-17T23:19:51.894Z,101941.31
2022-10-17T23:22:24.595Z,101945.31
2022-10-17T23:24:54.786Z,101946.59
2022-10-17T23:27:24.878Z,101944.44
2022-10-17T23:29:55.217Z,101938.72
2022-10-17T23:32:25.764Z,101952.28
2022-10-17T23:34:56.017Z,101952.63
2022-10-17T23:37:26.812Z,101951.28
2022-10-17T23:39:57.130Z,101959.59
2022-10-17T23:42:28.800Z,101956.81
2022-10-17T23:44:59.078Z,101958.19
2022-10-17T23:47:29.654Z,101972.63
2022-10-17T23:50:00.270Z,101962.69
2022-10-17T23:52:30.790Z,101971.81
2022-10-17T23:55:00.955Z,101983.63
2022-10-17T23:57:31.739Z,101977.06
